sensor_id;sensor_type;location;lat;lon;timestamp;pressure;altitude;pressure_sealevel;temperature;humidity
74631;BME280;63138;55.082;38.804;2023-09-12T00:00:49;100308.97;;;6.79;100.00
74631;BME280;63138;55.082;38.804;2023-09-12T00:03:19;100306.72;;;6.74;100.00
74631;BME280;63138;55.082;38.804;2023-09-12T00:08:18;100309.84;;;6.69;100.00
74631;BME280;63138;55.082;38.804;2023-09-12T00:10:44;100304.75;;;6.66;100.00
74631;BME280;63138;55.082;38.804;2023-09-12T00:13:10;100305.59;;;6.67;100.00
74631;BME280;63138;55.082;38.804;2023-09-12T00:15:36;100305.59;;;6.67;100.00
74631;BME280;63138;55.082;38.804;2023-09-12T00:18:02;100304.88;;;6.65;100.00
74631;BME280;63138;55.082;38.804;2023-09-12T00:20:28;100309.56;;;6.63;100.00
74631;BME280;63138;55.082;38.804;2023-09-12T00:22:54;100307.84;;;6.62;100.00
74631;BME280;63138;55.082;38.804;2023-09-12T00:25:21;100312.69;;;6.58;100.00
74631;BME280;63138;55.082;38.804;2023-09-12T00:27:47;100310.13;;;6.57;100.00
74631;BME280;63138;55.082;38.804;2023-09-12T00:30:16;100305.88;;;6.54;100.00
74631;BME280;63138;55.082;38.804;2023-09-12T00:32:41;100301.91;;;6.48;100.00
74631;BME280;63138;55.082;38.804;2023-09-12T00:35:07;100310.97;;;6.47;100.00
74631;BME280;63138;55.082;38.804;2023-09-12T00:37:33;100298.78;;;6.43;100.00
74631;BME280;63138;55.082;38.804;2023-09-12T00:39:59;100305.84;;;6.44;100.00
74631;BME280;63138;55.082;38.804;2023-09-12T00:42:25;100308.41;;;6.46;100.00
74631;BME280;63138;55.082;38.804;2023-09-12T00:44:52;100310.97;;;6.47;100.00
74631;BME280;63138;55.082;38.804;2023-09-12T00:47:20;100313.53;;;6.49;100.00
74631;BME280;63138;55.082;38.804;2023-09-12T00:49:48;100298.63;;;6.45;100.00
74631;BME280;63138;55.082;38.804;2023-09-12T00:52:14;100310.13;;;6.47;100.00
74631;BME280;63138;55.082;38.804;2023-09-12T00:54:40;100303.16;;;6.44;100.00
74631;BME280;63138;55.082;38.804;2023-09-12T00:57:07;100304.44;;;6.40;100.00
74631;BME280;63138;55.082;38.804;2023-09-12T00:59:32;100308.44;;;6.36;100.00
74631;BME280;63138;55.082;38.804;2023-09-12T01:01:59;100314.94;;;6.34;100.00
74631;BME280;63138;55.082;38.804;2023-09-12T01:04:27;100316.34;;;6.28;100.00
74631;BME280;63138;55.082;38.804;2023-09-12T01:06:53;100319.63;;;6.22;100.00
74631;BME280;63138;55.082;38.804;2023-09-12T01:09:19;100326.88;;;6.21;100.00
74631;BME280;63138;55.082;38.804;2023-09-12T01:11:44;100327.97;;;6.19;100.00
74631;BME280;63138;55.082;38.804;2023-09-12T01:14:10;100319.44;;;6.13;100.00
74631;BME280;63138;55.082;38.804;2023-09-12T01:16:36;100315.75;;;6.05;100.00
74631;BME280;63138;55.082;38.804;2023-09-12T01:19:03;100323.13;;;6.03;100.00
74631;BME280;63138;55.082;38.804;2023-09-12T01:27:19;100319.66;;;5.91;100.00
74631;BME280;63138;55.082;38.804;2023-09-12T01:29:51;100316.25;;;5.89;100.00
74631;BME280;63138;55.082;38.804;2023-09-12T01:32:19;100313.41;;;5.90;100.00
74631;BME280;63138;55.082;38.804;2023-09-12T01:34:46;100316.25;;;5.89;100.00
74631;BME280;63138;55.082;38.804;2023-09-12T01:37:12;100306.44;;;5.88;100.00
74631;BME280;63138;55.082;38.804;2023-09-12T01:39:38;100305.59;;;5.87;100.00
74631;BME280;63138;55.082;38.804;2023-09-12T01:42:05;100320.63;;;5.90;100.00
74631;BME280;63138;55.082;38.804;2023-09-12T01:44:33;100323.34;;;5.90;100.00
74631;BME280;63138;55.082;38.804;2023-09-12T01:47:03;100324.34;;;5.89;100.00
74631;BME280;63138;55.082;38.804;2023-09-12T01:49:30;100323.59;;;5.87;100.00
74631;BME280;63138;55.082;38.804;2023-09-12T01:51:58;100325.59;;;5.85;100.00
74631;BME280;63138;55.082;38.804;2023-09-12T01:54:27;100323.44;;;5.79;100.00
74631;BME280;63138;55.082;38.804;2023-09-12T01:56:54;100342.59;;;5.75;100.00
74631;BME280;63138;55.082;38.804;2023-09-12T01:59:23;100334.34;;;5.67;100.00
74631;BME280;63138;55.082;38.804;2023-09-12T02:01:50;100336.44;;;5.64;100.00
74631;BME280;63138;55.082;38.804;2023-09-12T02:04:16;100336.00;;;5.59;100.00
74631;BME280;63138;55.082;38.804;2023-09-12T02:06:42;100343.50;;;5.55;100.00
74631;BME280;63138;55.082;38.804;2023-09-12T02:09:09;100345.03;;;5.48;100.00
74631;BME280;63138;55.082;38.804;2023-09-12T02:11:34;100341.88;;;5.43;100.00
74631;BME280;63138;55.082;38.804;2023-09-12T02:14:00;100344.09;;;5.38;100.00
74631;BME280;63138;55.082;38.804;2023-09-12T02:16:27;100335.31;;;5.35;100.00
74631;BME280;63138;55.082;38.804;2023-09-12T02:18:53;100340.44;;;5.39;100.00
74631;BME280;63138;55.082;38.804;2023-09-12T02:21:19;100343.84;;;5.41;100.00
74631;BME280;63138;55.082;38.804;2023-09-12T02:23:45;100342.84;;;5.42;100.00
74631;BME280;63138;55.082;38.804;2023-09-12T02:26:12;100339.44;;;5.40;100.00
74631;BME280;63138;55.082;38.804;2023-09-12T02:28:38;100344.38;;;5.34;100.00
74631;BME280;63138;55.082;38.804;2023-09-12T02:31:10;100338.69;;;5.28;100.00
74631;BME280;63138;55.082;38.804;2023-09-12T02:33:37;100348.31;;;5.30;100.00
74631;BME280;63138;55.082;38.804;2023-09-12T02:36:04;100348.88;;;5.24;100.00
74631;BME280;63138;55.082;38.804;2023-09-12T02:38:30;100359.63;;;5.24;100.00
74631;BME280;63138;55.082;38.804;2023-09-12T02:40:55;100357.06;;;5.23;100.00
74631;BME280;63138;55.082;38.804;2023-09-12T02:43:23;100366.00;;;5.23;100.00
74631;BME280;63138;55.082;38.804;2023-09-12T02:45:48;100373.59;;;5.18;100.00
74631;BME280;63138;55.082;38.804;2023-09-12T02:48:14;100367.00;;;5.22;100.00
74631;BME280;63138;55.082;38.804;2023-09-12T02:50:41;100369.22;;;5.17;100.00
74631;BME280;63138;55.082;38.804;2023-09-12T02:53:06;100374.03;;;5.13;100.00
74631;BME280;63138;55.082;38.804;2023-09-12T02:55:33;100369.47;;;5.14;100.00
74631;BME280;63138;55.082;38.804;2023-09-12T02:57:59;100368.03;;;5.10;100.00
74631;BME280;63138;55.082;38.804;2023-09-12T03:00:25;100379.53;;;5.12;100.00
74631;BME280;63138;55.082;38.804;2023-09-12T03:02:50;100380.50;;;5.11;100.00
74631;BME280;63138;55.082;38.804;2023-09-12T03:05:17;100376.84;;;5.12;100.00
74631;BME280;63138;55.082;38.804;2023-09-12T03:07:42;100374.97;;;5.12;100.00
74631;BME280;63138;55.082;38.804;2023-09-12T03:10:09;100374.59;;;5.17;100.00
74631;BME280;63138;55.082;38.804;2023-09-12T03:12:37;100377.56;;;5.14;100.00
74631;BME280;63138;55.082;38.804;2023-09-12T03:15:04;100364.69;;;5.17;100.00
74631;BME280;63138;55.082;38.804;2023-09-12T03:17:30;100379.19;;;5.26;100.00
74631;BME280;63138;55.082;38.804;2023-09-12T03:19:56;100373.28;;;5.32;100.00
74631;BME280;63138;55.082;38.804;2023-09-12T03:22:22;100375.59;;;5.37;100.00
74631;BME280;63138;55.082;38.804;2023-09-12T03:24:47;100370.78;;;5.41;100.00
74631;BME280;63138;55.082;38.804;2023-09-12T03:27:13;100376.47;;;5.47;100.00
74631;BME280;63138;55.082;38.804;2023-09-12T03:29:39;100381.59;;;5.50;100.00
74631;BME280;63138;55.082;38.804;2023-09-12T03:32:05;100378.66;;;5.53;100.00
74631;BME280;63138;55.082;38.804;2023-09-12T03:34:31;100384.38;;;5.60;100.00
74631;BME280;63138;55.082;38.804;2023-09-12T03:36:56;100388.22;;;5.67;100.00
74631;BME280;63138;55.082;38.804;2023-09-12T03:39:22;100386.13;;;5.71;100.00
74631;BME280;63138;55.082;38.804;2023-09-12T03:41:48;100391.66;;;5.79;100.00
74631;BME280;63138;55.082;38.804;2023-09-12T03:44:14;100382.59;;;5.80;100.00
74631;BME280;63138;55.082;38.804;2023-09-12T03:46:39;100388.00;;;5.80;100.00
74631;BME280;63138;55.082;38.804;2023-09-12T03:49:05;100381.03;;;5.78;100.00
74631;BME280;63138;55.082;38.804;2023-09-12T03:51:31;100372.41;;;5.84;100.00
74631;BME280;63138;55.082;38.804;2023-09-12T03:53:57;100386.91;;;5.92;100.00
74631;BME280;63138;55.082;38.804;2023-09-12T03:56:23;100390.50;;;6.03;100.00
74631;BME280;63138;55.082;38.804;2023-09-12T03:58:49;100387.56;;;6.06;100.00
74631;BME280;63138;55.082;38.804;2023-09-12T04:01:15;100387.28;;;6.09;100.00
74631;BME280;63138;55.082;38.804;2023-09-12T04:03:40;100385.31;;;6.11;100.00
74631;BME280;63138;55.082;38.804;2023-09-12T04:06:06;100390.97;;;6.08;100.00
74631;BME280;63138;55.082;38.804;2023-09-12T04:08:32;100390.13;;;6.07;100.00
74631;BME280;63138;55.082;38.804;2023-09-12T04:10:58;100391.81;;;6.08;100.00
74631;BME280;63138;55.082;38.804;2023-09-12T04:13:25;100393.72;;;6.18;100.00
74631;BME280;63138;55.082;38.804;2023-09-12T04:15:51;100398.97;;;6.29;100.00
74631;BME280;63138;55.082;38.804;2023-09-12T04:18:17;100400.13;;;6.36;100.00
74631;BME280;63138;55.082;38.804;2023-09-12T04:20:42;100396.72;;;6.34;100.00
74631;BME280;63138;55.082;38.804;2023-09-12T04:23:10;100402.28;;;6.42;100.00
74631;BME280;63138;55.082;38.804;2023-09-12T04:25:36;100399.16;;;6.57;100.00
74631;BME280;63138;55.082;38.804;2023-09-12T04:28:02;100405.72;;;6.64;100.00
74631;BME280;63138;55.082;38.804;2023-09-12T04:30:28;100408.44;;;6.74;100.00
74631;BME280;63138;55.082;38.804;2023-09-12T04:32:54;100409.84;;;6.78;100.00
74631;BME280;63138;55.082;38.804;2023-09-12T04:35:20;100411.44;;;6.90;100.00
74631;BME280;63138;55.082;38.804;2023-09-12T04:37:47;100412.00;;;6.94;100.00
74631;BME280;63138;55.082;38.804;2023-09-12T04:40:14;100409.16;;;6.95;100.00
74631;BME280;63138;55.082;38.804;2023-09-12T04:42:40;100406.16;;;6.98;100.00
74631;BME280;63138;55.082;38.804;2023-09-12T04:45:06;100404.47;;;7.07;100.00
74631;BME280;63138;55.082;38.804;2023-09-12T04:47:32;100406.16;;;7.18;100.00
74631;BME280;63138;55.082;38.804;2023-09-12T04:49:58;100410.28;;;7.32;100.00
74631;BME280;63138;55.082;38.804;2023-09-12T04:52:24;100404.28;;;7.38;100.00
74631;BME280;63138;55.082;38.804;2023-09-12T04:54:50;100400.97;;;7.54;100.00
74631;BME280;63138;55.082;38.804;2023-09-12T04:57:15;100402.66;;;7.64;100.00
74631;BME280;63138;55.082;38.804;2023-09-12T04:59:41;100390.72;;;7.57;100.00
74631;BME280;63138;55.082;38.804;2023-09-12T05:02:07;100401.69;;;7.65;100.00
74631;BME280;63138;55.082;38.804;2023-09-12T05:04:34;100408.75;;;7.66;100.00
74631;BME280;63138;55.082;38.804;2023-09-12T05:07:00;100396.69;;;7.71;100.00
74631;BME280;63138;55.082;38.804;2023-09-12T05:09:26;100398.91;;;7.85;100.00
74631;BME280;63138;55.082;38.804;2023-09-12T05:11:52;100410.97;;;7.91;100.00
74631;BME280;63138;55.082;38.804;2023-09-12T05:14:18;100405.94;;;8.06;100.00
74631;BME280;63138;55.082;38.804;2023-09-12T05:16:44;100415.25;;;8.21;100.00
74631;BME280;63138;55.082;38.804;2023-09-12T05:19:10;100406.94;;;8.32;100.00
74631;BME280;63138;55.082;38.804;2023-09-12T05:21:36;100411.88;;;8.47;100.00
74631;BME280;63138;55.082;38.804;2023-09-12T05:24:02;100415.00;;;8.52;100.00
74631;BME280;63138;55.082;38.804;2023-09-12T05:26:28;100417.22;;;8.56;100.00
74631;BME280;63138;55.082;38.804;2023-09-12T05:28:55;100425.75;;;8.61;100.00
74631;BME280;63138;55.082;38.804;2023-09-12T05:31:21;100422.66;;;8.74;100.00
74631;BME280;63138;55.082;38.804;2023-09-12T05:33:47;100423.44;;;8.85;100.00
74631;BME280;63138;55.082;38.804;2023-09-12T05:36:15;100419.38;;;8.98;100.00
74631;BME280;63138;55.082;38.804;2023-09-12T05:38:42;100413.31;;;9.05;100.00
74631;BME280;63138;55.082;38.804;2023-09-12T05:41:08;100422.22;;;9.15;100.00
74631;BME280;63138;55.082;38.804;2023-09-12T05:43:34;100417.69;;;9.24;100.00
74631;BME280;63138;55.082;38.804;2023-09-12T05:46:00;100420.47;;;9.32;100.00
74631;BME280;63138;55.082;38.804;2023-09-12T05:48:26;100421.25;;;9.42;100.00
74631;BME280;63138;55.082;38.804;2023-09-12T05:50:52;100421.97;;;9.52;100.00
74631;BME280;63138;55.082;38.804;2023-09-12T05:53:17;100421.16;;;9.78;100.00
74631;BME280;63138;55.082;38.804;2023-09-12T05:55:43;100426.00;;;9.92;100.00
74631;BME280;63138;55.082;38.804;2023-09-12T05:58:10;100425.53;;;10.31;100.00
74631;BME280;63138;55.082;38.804;2023-09-12T06:00:36;100410.63;;;11.44;100.00
74631;BME280;63138;55.082;38.804;2023-09-12T06:03:02;100407.44;;;12.52;100.00
74631;BME280;63138;55.082;38.804;2023-09-12T06:05:28;100403.31;;;13.57;100.00
74631;BME280;63138;55.082;38.804;2023-09-12T06:07:53;100405.50;;;14.36;100.00
74631;BME280;63138;55.082;38.804;2023-09-12T06:10:23;100405.09;;;15.05;100.00
74631;BME280;63138;55.082;38.804;2023-09-12T06:12:49;100408.13;;;15.89;100.00
74631;BME280;63138;55.082;38.804;2023-09-12T06:15:15;100407.72;;;16.27;100.00
74631;BME280;63138;55.082;38.804;2023-09-12T06:17:42;100406.09;;;16.87;100.00
74631;BME280;63138;55.082;38.804;2023-09-12T06:20:08;100404.69;;;17.58;100.00
74631;BME280;63138;55.082;38.804;2023-09-12T06:22:34;100397.88;;;18.07;100.00
74631;BME280;63138;55.082;38.804;2023-09-12T06:25:00;100393.75;;;18.50;97.04
74631;BME280;63138;55.082;38.804;2023-09-12T06:27:26;100400.94;;;18.96;93.48
74631;BME280;63138;55.082;38.804;2023-09-12T06:29:52;100405.09;;;19.37;90.71
74631;BME280;63138;55.082;38.804;2023-09-12T06:32:18;100401.59;;;19.80;87.71
74631;BME280;63138;55.082;38.804;2023-09-12T06:34:45;100403.00;;;20.45;84.06
74631;BME280;63138;55.082;38.804;2023-09-12T06:37:30;100399.75;;;21.15;80.86
74631;BME280;63138;55.082;38.804;2023-09-12T06:39:56;100406.50;;;21.62;77.55
74631;BME280;63138;55.082;38.804;2023-09-12T06:42:22;100394.34;;;22.10;73.85
74631;BME280;63138;55.082;38.804;2023-09-12T06:45:06;100401.81;;;21.98;72.22
74631;BME280;63138;55.082;38.804;2023-09-12T06:47:32;100401.72;;;21.81;72.10
74631;BME280;63138;55.082;38.804;2023-09-12T06:49:58;100397.97;;;21.87;71.65
74631;BME280;63138;55.082;38.804;2023-09-12T06:52:23;100407.81;;;22.06;70.88
74631;BME280;63138;55.082;38.804;2023-09-12T06:54:49;100405.38;;;22.22;70.47
74631;BME280;63138;55.082;38.804;2023-09-12T06:57:15;100399.13;;;22.50;69.94
74631;BME280;63138;55.082;38.804;2023-09-12T06:59:41;100407.84;;;22.99;68.65
74631;BME280;63138;55.082;38.804;2023-09-12T07:02:07;100409.81;;;22.58;68.19
74631;BME280;63138;55.082;38.804;2023-09-12T07:04:33;100402.31;;;23.28;67.00
74631;BME280;63138;55.082;38.804;2023-09-12T07:06:59;100407.97;;;23.67;64.63
74631;BME280;63138;55.082;38.804;2023-09-12T07:09:25;100401.00;;;23.64;63.61
74631;BME280;63138;55.082;38.804;2023-09-12T07:11:51;100413.41;;;23.45;64.32
74631;BME280;63138;55.082;38.804;2023-09-12T07:14:21;100406.56;;;23.81;63.81
74631;BME280;63138;55.082;38.804;2023-09-12T07:16:48;100408.56;;;23.86;62.58
74631;BME280;63138;55.082;38.804;2023-09-12T07:19:14;100406.31;;;24.22;62.73
74631;BME280;63138;55.082;38.804;2023-09-12T07:21:39;100409.75;;;24.29;61.71
74631;BME280;63138;55.082;38.804;2023-09-12T07:24:05;100410.59;;;24.13;61.86
74631;BME280;63138;55.082;38.804;2023-09-12T07:26:31;100411.31;;;24.42;61.08
74631;BME280;63138;55.082;38.804;2023-09-12T07:28:57;100411.16;;;24.71;60.28
74631;BME280;63138;55.082;38.804;2023-09-12T07:31:23;100403.66;;;24.71;59.26
74631;BME280;63138;55.082;38.804;2023-09-12T07:33:50;100404.06;;;25.67;57.80
74631;BME280;63138;55.082;38.804;2023-09-12T07:36:15;100407.72;;;25.40;57.71
74631;BME280;63138;55.082;38.804;2023-09-12T07:38:41;100404.00;;;25.62;57.36
74631;BME280;63138;55.082;38.804;2023-09-12T07:41:07;100402.53;;;25.49;56.95
74631;BME280;63138;55.082;38.804;2023-09-12T07:43:33;100409.25;;;24.76;58.63
74631;BME280;63138;55.082;38.804;2023-09-12T07:45:59;100414.72;;;25.21;57.83
74631;BME280;63138;55.082;38.804;2023-09-12T07:48:25;100412.88;;;25.59;56.71
74631;BME280;63138;55.082;38.804;2023-09-12T07:50:50;100406.06;;;25.76;57.43
74631;BME280;63138;55.082;38.804;2023-09-12T07:53:17;100408.41;;;26.38;55.50
74631;BME280;63138;55.082;38.804;2023-09-12T07:55:42;100405.56;;;26.22;55.10
74631;BME280;63138;55.082;38.804;2023-09-12T07:58:16;100398.72;;;26.40;54.19
74631;BME280;63138;55.082;38.804;2023-09-12T08:00:45;100399.94;;;25.74;55.75
74631;BME280;63138;55.082;38.804;2023-09-12T08:03:11;100407.66;;;26.00;55.09
74631;BME280;63138;55.082;38.804;2023-09-12T08:05:37;100397.84;;;26.35;53.83
74631;BME280;63138;55.082;38.804;2023-09-12T08:08:03;100406.44;;;25.53;55.87
74631;BME280;63138;55.082;38.804;2023-09-12T08:10:29;100402.16;;;25.72;56.32
74631;BME280;63138;55.082;38.804;2023-09-12T08:12:55;100406.59;;;25.36;57.38
74631;BME280;63138;55.082;38.804;2023-09-12T08:15:21;100407.44;;;25.14;57.87
74631;BME280;63138;55.082;38.804;2023-09-12T08:17:47;100396.59;;;25.40;57.54
74631;BME280;63138;55.082;38.804;2023-09-12T08:20:20;100399.75;;;25.22;57.84
74631;BME280;63138;55.082;38.804;2023-09-12T08:22:46;100400.50;;;25.39;57.16
74631;BME280;63138;55.082;38.804;2023-09-12T08:25:12;100391.84;;;25.73;55.68
74631;BME280;63138;55.082;38.804;2023-09-12T08:27:39;100390.94;;;25.30;56.52
74631;BME280;63138;55.082;38.804;2023-09-12T08:30:06;100391.28;;;25.11;57.24
74631;BME280;63138;55.082;38.804;2023-09-12T08:32:32;100397.69;;;25.12;56.89
74631;BME280;63138;55.082;38.804;2023-09-12T08:34:57;100386.16;;;25.52;56.45
74631;BME280;63138;55.082;38.804;2023-09-12T08:37:24;100388.78;;;25.10;56.90
74631;BME280;63138;55.082;38.804;2023-09-12T08:39:50;100382.34;;;25.64;56.87
74631;BME280;63138;55.082;38.804;2023-09-12T08:42:22;100386.25;;;25.63;56.20
74631;BME280;63138;55.082;38.804;2023-09-12T08:44:48;100390.06;;;26.37;55.02
74631;BME280;63138;55.082;38.804;2023-09-12T08:47:15;100393.03;;;25.77;54.91
74631;BME280;63138;55.082;38.804;2023-09-12T08:49:41;100386.94;;;25.48;55.86
74631;BME280;63138;55.082;38.804;2023-09-12T08:52:11;100380.53;;;26.22;53.57
74631;BME280;63138;55.082;38.804;2023-09-12T08:54:36;100389.75;;;25.90;54.54
74631;BME280;63138;55.082;38.804;2023-09-12T08:57:03;100384.97;;;26.23;54.08
74631;BME280;63138;55.082;38.804;2023-09-12T08:59:34;100380.84;;;26.36;51.71
74631;BME280;63138;55.082;38.804;2023-09-12T09:02:01;100374.31;;;26.05;50.96
74631;BME280;63138;55.082;38.804;2023-09-12T09:04:29;100376.41;;;25.50;53.30
74631;BME280;63138;55.082;38.804;2023-09-12T09:06:58;100385.75;;;24.84;55.46
74631;BME280;63138;55.082;38.804;2023-09-12T09:09:26;100373.00;;;24.88;54.59
74631;BME280;63138;55.082;38.804;2023-09-12T09:11:53;100374.69;;;24.23;56.03
74631;BME280;63138;55.082;38.804;2023-09-12T09:14:19;100376.00;;;24.37;56.41
74631;BME280;63138;55.082;38.804;2023-09-12T09:16:45;100373.78;;;23.95;57.77
74631;BME280;63138;55.082;38.804;2023-09-12T09:19:12;100376.00;;;23.14;59.40
74631;BME280;63138;55.082;38.804;2023-09-12T09:21:38;100380.38;;;22.40;62.91
74631;BME280;63138;55.082;38.804;2023-09-12T09:24:08;100367.41;;;22.17;65.01
74631;BME280;63138;55.082;38.804;2023-09-12T09:27:00;100376.97;;;20.78;70.43
74631;BME280;63138;55.082;38.804;2023-09-12T09:29:27;100386.75;;;20.74;72.37
74631;BME280;63138;55.082;38.804;2023-09-12T09:32:02;100391.63;;;20.90;71.90
74631;BME280;63138;55.082;38.804;2023-09-12T09:34:30;100383.16;;;21.04;71.51
74631;BME280;63138;55.082;38.804;2023-09-12T09:36:57;100384.47;;;20.34;73.33
74631;BME280;63138;55.082;38.804;2023-09-12T09:39:25;100381.94;;;20.32;75.38
74631;BME280;63138;55.082;38.804;2023-09-12T09:41:55;100393.59;;;19.97;77.67
74631;BME280;63138;55.082;38.804;2023-09-12T09:44:22;100382.53;;;19.28;79.95
74631;BME280;63138;55.082;38.804;2023-09-12T09:46:58;100388.03;;;19.28;80.84
74631;BME280;63138;55.082;38.804;2023-09-12T09:49:31;100388.88;;;18.97;82.27
74631;BME280;63138;55.082;38.804;2023-09-12T09:51:57;100379.63;;;18.85;84.42
74631;BME280;63138;55.082;38.804;2023-09-12T09:54:26;100387.56;;;19.32;82.17
74631;BME280;63138;55.082;38.804;2023-09-12T09:56:55;100377.09;;;19.15;82.58
74631;BME280;63138;55.082;38.804;2023-09-12T09:59:23;100388.69;;;19.24;82.09
74631;BME280;63138;55.082;38.804;2023-09-12T10:01:50;100385.28;;;19.28;82.23
74631;BME280;63138;55.082;38.804;2023-09-12T10:04:17;100365.38;;;19.26;80.58
74631;BME280;63138;55.082;38.804;2023-09-12T10:06:46;100389.94;;;18.96;80.50
74631;BME280;63138;55.082;38.804;2023-09-12T10:09:13;100371.16;;;18.34;82.22
74631;BME280;63138;55.082;38.804;2023-09-12T10:11:40;100379.09;;;18.63;81.86
74631;BME280;63138;55.082;38.804;2023-09-12T10:14:08;100382.41;;;18.78;81.08
74631;BME280;63138;55.082;38.804;2023-09-12T10:16:35;100376.00;;;18.91;77.91
74631;BME280;63138;55.082;38.804;2023-09-12T10:19:22;100376.09;;;18.71;76.99
74631;BME280;63138;55.082;38.804;2023-09-12T10:24:46;100367.03;;;19.02;75.34
74631;BME280;63138;55.082;38.804;2023-09-12T10:27:14;100380.88;;;18.89;74.96
74631;BME280;63138;55.082;38.804;2023-09-12T10:29:40;100365.97;;;18.58;72.56
74631;BME280;63138;55.082;38.804;2023-09-12T10:32:08;100385.16;;;18.78;73.66
74631;BME280;63138;55.082;38.804;2023-09-12T10:34:34;100387.94;;;18.71;70.10
74631;BME280;63138;55.082;38.804;2023-09-12T10:37:00;100382.94;;;18.55;68.41
74631;BME280;63138;55.082;38.804;2023-09-12T10:39:32;100379.66;;;18.26;66.89
74631;BME280;63138;55.082;38.804;2023-09-12T10:41:58;100385.81;;;18.67;65.98
74631;BME280;63138;55.082;38.804;2023-09-12T10:44:25;100384.19;;;18.59;61.93
74631;BME280;63138;55.082;38.804;2023-09-12T10:46:51;100374.16;;;18.78;64.00
74631;BME280;63138;55.082;38.804;2023-09-12T10:49:19;100383.44;;;18.39;66.07
74631;BME280;63138;55.082;38.804;2023-09-12T10:51:46;100375.69;;;18.09;67.58
74631;BME280;63138;55.082;38.804;2023-09-12T10:54:14;100376.56;;;18.03;70.74
74631;BME280;63138;55.082;38.804;2023-09-12T10:56:40;100377.63;;;17.95;70.42
74631;BME280;63138;55.082;38.804;2023-09-12T11:01:33;100381.59;;;18.19;70.41
74631;BME280;63138;55.082;38.804;2023-09-12T11:06:50;100368.06;;;18.11;69.05
74631;BME280;63138;55.082;38.804;2023-09-12T11:09:18;100378.03;;;18.12;67.26
74631;BME280;63138;55.082;38.804;2023-09-12T11:11:49;100370.78;;;18.24;68.71
74631;BME280;63138;55.082;38.804;2023-09-12T11:14:20;100369.16;;;17.96;68.86
74631;BME280;63138;55.082;38.804;2023-09-12T11:19:47;100369.63;;;17.93;69.14
74631;BME280;63138;55.082;38.804;2023-09-12T11:24:51;100367.91;;;17.92;71.91
74631;BME280;63138;55.082;38.804;2023-09-12T11:27:17;100359.22;;;18.09;71.74
74631;BME280;63138;55.082;38.804;2023-09-12T11:29:44;100363.19;;;18.20;69.09
74631;BME280;63138;55.082;38.804;2023-09-12T11:32:25;100352.22;;;18.13;67.62
74631;BME280;63138;55.082;38.804;2023-09-12T11:34:52;100355.06;;;18.38;67.34
74631;BME280;63138;55.082;38.804;2023-09-12T11:37:26;100361.84;;;18.42;68.56
74631;BME280;63138;55.082;38.804;2023-09-12T11:39:54;100365.78;;;18.08;67.91
74631;BME280;63138;55.082;38.804;2023-09-12T11:42:20;100355.63;;;18.02;68.65
74631;BME280;63138;55.082;38.804;2023-09-12T11:44:51;100361.09;;;18.15;67.90
74631;BME280;63138;55.082;38.804;2023-09-12T11:47:17;100361.69;;;18.24;68.09
74631;BME280;63138;55.082;38.804;2023-09-12T11:49:44;100355.13;;;18.31;67.12
74631;BME280;63138;55.082;38.804;2023-09-12T11:52:11;100344.50;;;18.42;67.41
74631;BME280;63138;55.082;38.804;2023-09-12T11:54:39;100351.78;;;18.68;67.70
74631;BME280;63138;55.082;38.804;2023-09-12T11:57:08;100354.97;;;18.58;66.42
74631;BME280;63138;55.082;38.804;2023-09-12T11:59:37;100353.28;;;18.64;65.55
74631;BME280;63138;55.082;38.804;2023-09-12T12:02:08;100353.28;;;18.64;66.13
74631;BME280;63138;55.082;38.804;2023-09-12T12:04:37;100347.28;;;18.73;67.10
74631;BME280;63138;55.082;38.804;2023-09-12T12:07:04;100355.72;;;18.85;67.51
74631;BME280;63138;55.082;38.804;2023-09-12T12:09:33;100353.75;;;18.54;64.34
74631;BME280;63138;55.082;38.804;2023-09-12T12:12:19;100356.19;;;18.69;62.55
74631;BME280;63138;55.082;38.804;2023-09-12T12:14:44;100350.13;;;18.60;56.90
74631;BME280;63138;55.082;38.804;2023-09-12T12:17:12;100354.03;;;18.78;60.75
74631;BME280;63138;55.082;38.804;2023-09-12T12:19:38;100353.22;;;18.70;62.90
74631;BME280;63138;55.082;38.804;2023-09-12T12:22:05;100360.97;;;18.87;62.22
74631;BME280;63138;55.082;38.804;2023-09-12T12:24:46;100348.63;;;18.64;63.66
74631;BME280;63138;55.082;38.804;2023-09-12T12:27:15;100359.94;;;18.88;61.85
74631;BME280;63138;55.082;38.804;2023-09-12T12:29:41;100358.69;;;18.84;60.61
74631;BME280;63138;55.082;38.804;2023-09-12T12:32:10;100358.00;;;18.88;62.04
74631;BME280;63138;55.082;38.804;2023-09-12T12:34:36;100354.78;;;18.98;61.21
74631;BME280;63138;55.082;38.804;2023-09-12T12:37:03;100360.69;;;19.02;60.17
74631;BME280;63138;55.082;38.804;2023-09-12T12:39:31;100357.72;;;19.03;61.50
74631;BME280;63138;55.082;38.804;2023-09-12T12:41:57;100356.97;;;18.89;61.98
74631;BME280;63138;55.082;38.804;2023-09-12T12:44:32;100362.19;;;18.98;62.95
74631;BME280;63138;55.082;38.804;2023-09-12T12:47:04;100357.53;;;18.98;65.02
74631;BME280;63138;55.082;38.804;2023-09-12T12:49:51;100356.63;;;19.04;65.89
74631;BME280;63138;55.082;38.804;2023-09-12T12:52:24;100351.72;;;19.13;66.89
74631;BME280;63138;55.082;38.804;2023-09-12T12:54:51;100360.16;;;19.18;67.62
74631;BME280;63138;55.082;38.804;2023-09-12T12:57:20;100360.22;;;19.05;68.26
74631;BME280;63138;55.082;38.804;2023-09-12T12:59:49;100353.56;;;19.19;68.90
74631;BME280;63138;55.082;38.804;2023-09-12T13:02:17;100352.50;;;19.20;68.68